createdAt,value
2024-03-14T00:00:53.309Z,150753.56
2024-03-14T00:05:56.132Z,150767.72
2024-03-14T00:10:57.944Z,150731.66
2024-03-14T00:15:59.645Z,150720.06
2024-03-14T00:21:02.294Z,150741.91
2024-03-14T00:26:04.763Z,150752.22
2024-03-14T00:31:06.499Z,150771.59
2024-03-14T00:36:12.680Z,150756.13
2024-03-14T00:41:17.831Z,150717.44
2024-03-14T00:46:19.924Z,150754.84
2024-03-14T00:51:21.957Z,150685.22
2024-03-14T00:56:26.161Z,150704.56
2024-03-14T01:01:27.913Z,150667.22
2024-03-14T01:06:29.699Z,150694.25
2024-03-14T01:11:32.636Z,150721.34
2024-03-14T01:16:35.832Z,150682.66
2024-03-14T01:21:40.841Z,150647.88
2024-03-14T01:26:43.350Z,150690.41
2024-03-14T01:31:46.289Z,150761.25
2024-03-14T01:36:48.016Z,150788.41
2024-03-14T01:41:51.144Z,150785.78
2024-03-14T01:46:55.837Z,150707.13
2024-03-14T01:51:57.569Z,150618.22
2024-03-14T01:56:59.625Z,150580.88
2024-03-14T02:02:01.586Z,150557.69
2024-03-14T02:07:10.190Z,150580.88
2024-03-14T02:12:11.919Z,150604.06
2024-03-14T02:17:13.575Z,150561.53
2024-03-14T02:22:22.018Z,150614.38
2024-03-14T02:27:24.412Z,150577.03
2024-03-14T02:32:26.252Z,150565.44
2024-03-14T02:37:27.971Z,150592.47
2024-03-14T02:42:30.682Z,150606.63
2024-03-14T02:47:32.441Z,150587.34
2024-03-14T02:52:34.545Z,150584.72
2024-03-14T02:57:36.452Z,150620.84
2024-03-14T03:02:38.173Z,150620.84
2024-03-14T03:07:39.979Z,150542.25
2024-03-14T03:12:41.809Z,150565.44
2024-03-14T03:17:43.638Z,150564.16
2024-03-14T03:23:05.293Z,150561.53
2024-03-14T03:28:11.928Z,150513.88
2024-03-14T03:33:18.512Z,150489.44
2024-03-14T03:38:20.350Z,150463.69
2024-03-14T03:43:21.995Z,150441.81
2024-03-14T03:48:26.660Z,150497.19
2024-03-14T03:53:28.366Z,150466.25
2024-03-14T03:58:35.853Z,150461.06
2024-03-14T04:03:41.444Z,150463.69
2024-03-14T04:08:43.370Z,150435.34
2024-03-14T04:13:45.213Z,150383.81
2024-03-14T04:18:47.092Z,150378.69
2024-03-14T04:23:48.899Z,150378.69
2024-03-14T04:28:51.054Z,150368.38
2024-03-14T04:33:53.517Z,150354.25
2024-03-14T04:38:55.315Z,150360.66
2024-03-14T04:43:57.602Z,150359.38
2024-03-14T04:48:59.409Z,150419.91
2024-03-14T04:54:01.274Z,150360.66
2024-03-14T04:59:03.060Z,150346.50
2024-03-14T05:04:07.564Z,150398.03
2024-03-14T05:09:11.505Z,150386.44
2024-03-14T05:14:13.250Z,150343.94
2024-03-14T05:19:21.719Z,150364.53
2024-03-14T05:24:24.210Z,150389.00
2024-03-14T05:29:26.407Z,150422.47
2024-03-14T05:34:28.088Z,150463.69
2024-03-14T05:39:30.317Z,150480.41
2024-03-14T05:44:32.078Z,150422.47
2024-03-14T05:49:33.770Z,150369.66
2024-03-14T05:54:35.498Z,150377.41
2024-03-14T05:59:37.865Z,150341.38
2024-03-14T06:04:39.658Z,150331.06
2024-03-14T06:09:42.924Z,150356.81
2024-03-14T06:14:44.663Z,150383.81
2024-03-14T06:19:47.522Z,150445.66
2024-03-14T06:24:49.442Z,150463.69
2024-03-14T06:29:51.700Z,150436.63
2024-03-14T06:34:53.525Z,150446.94
2024-03-14T06:39:55.344Z,150480.41
2024-03-14T06:44:58.112Z,150490.72
2024-03-14T06:50:00.342Z,150492.00
2024-03-14T06:55:02.281Z,150538.34
2024-03-14T07:00:13.399Z,150506.16
2024-03-14T07:05:18.328Z,150547.38
2024-03-14T07:10:20.453Z,150528.03
2024-03-14T07:15:23.375Z,150501.03
2024-03-14T07:20:34.353Z,150573.13
2024-03-14T07:25:36.321Z,150533.22
2024-03-14T07:30:41.360Z,150522.91
2024-03-14T07:35:46.230Z,150520.34
2024-03-14T07:40:48.246Z,150647.88
2024-03-14T07:45:49.937Z,150582.16
2024-03-14T07:50:52.073Z,150604.06
2024-03-14T07:55:53.926Z,150588.63
2024-03-14T08:00:57.109Z,150640.13
2024-03-14T08:06:00.460Z,150618.22
2024-03-14T08:11:04.579Z,150676.22
2024-03-14T08:16:15.580Z,150662.03
2024-03-14T08:21:17.938Z,150703.28
2024-03-14T08:26:19.732Z,150651.72
2024-03-14T08:31:24.055Z,150689.13
2024-03-14T08:36:25.811Z,150736.78
2024-03-14T08:41:27.518Z,150860.59
2024-03-14T08:46:29.708Z,150850.25
2024-03-14T08:51:33.335Z,150931.47
2024-03-14T08:56:36.402Z,150926.34
2024-03-14T09:01:38.203Z,150926.34
2024-03-14T09:06:41.809Z,150965.03
2024-03-14T09:11:49.461Z,150958.59
2024-03-14T09:16:51.414Z,150995.97
2024-03-14T09:21:53.113Z,151073.38
2024-03-14T09:26:55.007Z,151073.38
2024-03-14T09:31:58.142Z,151065.63
2024-03-14T09:37:01.717Z,151021.78
2024-03-14T09:42:03.777Z,151010.16
2024-03-14T09:47:41.693Z,151106.94
2024-03-14T09:52:44.623Z,151126.31
2024-03-14T09:57:52.950Z,151265.72
2024-03-14T10:02:57.167Z,151242.44
2024-03-14T10:08:00.973Z,151237.28
2024-03-14T10:13:02.717Z,151215.34
2024-03-14T10:18:10.940Z,151298.00
2024-03-14T10:23:18.026Z,151242.44
2024-03-14T10:28:21.500Z,151287.66
2024-03-14T10:33:23.822Z,151301.91
2024-03-14T10:38:27.205Z,151389.66
2024-03-14T10:43:35.198Z,151296.72
2024-03-14T10:48:39.595Z,151376.75
2024-03-14T10:53:42.699Z,151420.66
2024-03-14T10:58:48.686Z,151549.88
2024-03-14T11:03:54.056Z,151576.97
2024-03-14T11:09:00.589Z,151474.91
2024-03-14T11:14:06.593Z,151570.50
2024-03-14T11:19:15.382Z,151516.28
2024-03-14T11:24:20.944Z,151604.09
2024-03-14T11:29:23.734Z,151569.22
2024-03-14T11:34:27.699Z,151525.28
2024-03-14T11:39:29.407Z,151552.44
2024-03-14T11:44:31.603Z,151564.06
2024-03-14T11:49:35.179Z,151586.03
2024-03-14T11:54:39.100Z,151613.16
2024-03-14T11:59:45.504Z,151693.31
2024-03-14T12:04:49.344Z,151624.78
2024-03-14T12:09:51.399Z,151677.84
2024-03-14T12:14:56.993Z,151763.16
2024-03-14T12:19:58.713Z,151798.06
2024-03-14T12:25:02.008Z,151866.59
2024-03-14T12:30:06.774Z,151847.19
2024-03-14T12:35:15.058Z,151840.75
2024-03-14T12:40:21.920Z,151796.78
2024-03-14T12:45:27.638Z,151918.28
2024-03-14T12:50:29.688Z,151831.69
2024-03-14T12:55:34.912Z,151811.00
2024-03-14T13:00:36.892Z,151848.47
2024-03-14T13:05:38.749Z,151812.28
2024-03-14T13:10:42.365Z,151831.69
2024-03-14T13:15:54.328Z,151714.00
2024-03-14T13:20:56.936Z,151737.28
2024-03-14T13:25:58.928Z,151751.53
2024-03-14T13:31:01.114Z,151798.06
2024-03-14T13:36:07.111Z,151826.47
2024-03-14T13:41:09.309Z,151748.91
2024-03-14T13:46:12.714Z,151808.41
2024-03-14T13:51:14.705Z,151794.16
2024-03-14T13:56:17.462Z,151928.66
2024-03-14T14:01:22.956Z,151880.81
2024-03-14T14:06:25.277Z,151939.00
2024-03-14T14:11:28.784Z,151937.72
2024-03-14T14:16:30.570Z,151924.78
2024-03-14T14:21:32.508Z,151911.84
2024-03-14T14:26:34.428Z,151869.16
2024-03-14T14:31:36.233Z,151891.16
2024-03-14T14:36:39.043Z,151878.22
2024-03-14T14:41:40.742Z,151826.47
2024-03-14T14:46:42.560Z,151852.38
2024-03-14T14:51:44.488Z,151789.00
2024-03-14T14:56:46.262Z,151856.25
2024-03-14T15:01:48.690Z,151830.41
2024-03-14T15:06:50.602Z,151803.22
2024-03-14T15:11:52.910Z,151792.88
2024-03-14T15:16:56.718Z,151860.09
2024-03-14T15:21:58.894Z,151869.16
2024-03-14T15:27:01.881Z,151829.09
2024-03-14T15:32:05.290Z,151812.28
2024-03-14T15:37:07.239Z,151764.44
2024-03-14T15:42:09.407Z,151763.16
2024-03-14T15:47:14.252Z,151832.97
2024-03-14T15:52:17.596Z,151783.81
2024-03-14T15:57:22.730Z,151745.03
2024-03-14T16:02:25.186Z,151809.69
2024-03-14T16:07:27.701Z,151723.06
2024-03-14T16:12:29.425Z,151732.13
2024-03-14T16:17:31.179Z,151751.53
2024-03-14T16:22:33.354Z,151729.56
2024-03-14T16:27:35.899Z,151719.22
2024-03-14T16:32:37.701Z,151710.16
2024-03-14T16:37:39.687Z,151704.94
2024-03-14T16:42:41.519Z,151706.28
2024-03-14T16:47:45.612Z,151652.00
2024-03-14T16:52:48.773Z,151664.91
2024-03-14T16:57:50.458Z,151671.34
2024-03-14T17:02:52.319Z,151681.69
2024-03-14T17:07:54.132Z,151627.41
2024-03-14T17:12:56.078Z,151717.91
2024-03-14T17:17:58.378Z,151666.19
2024-03-14T17:23:00.107Z,151628.69
2024-03-14T17:28:01.821Z,151608.00
2024-03-14T17:33:03.808Z,151574.41
2024-03-14T17:38:05.555Z,151640.31
2024-03-14T17:43:12.197Z,151629.97
2024-03-14T17:48:13.891Z,151652.00
2024-03-14T17:53:15.689Z,151666.19
2024-03-14T17:58:17.439Z,151564.06
2024-03-14T18:03:19.456Z,151600.22
2024-03-14T18:08:21.249Z,151560.22
2024-03-14T18:13:23.042Z,151525.28
2024-03-14T18:18:24.823Z,151500.75
2024-03-14T18:23:26.952Z,151515.00
2024-03-14T18:28:28.707Z,151490.41
2024-03-14T18:33:31.597Z,151507.22
2024-03-14T18:38:34.149Z,151446.47
2024-03-14T18:43:35.874Z,151478.78
2024-03-14T18:48:37.677Z,151524.00
2024-03-14T18:53:39.503Z,151520.13
2024-03-14T18:58:41.783Z,151473.63
2024-03-14T19:03:48.113Z,151424.53
2024-03-14T19:08:50.729Z,151401.28
2024-03-14T19:13:52.630Z,151352.22
2024-03-14T19:18:56.236Z,151335.41
2024-03-14T19:24:01.104Z,151294.13
2024-03-14T19:29:03.115Z,151282.53
2024-03-14T19:34:05.037Z,151245.00
2024-03-14T19:39:09.713Z,151237.28
2024-03-14T19:44:11.651Z,151166.28
2024-03-14T19:49:14.207Z,151136.63
2024-03-14T19:54:17.539Z,151110.78
2024-03-14T19:59:20.055Z,151108.22
2024-03-14T20:04:21.860Z,151028.22
2024-03-14T20:09:23.688Z,150983.09
2024-03-14T20:14:25.618Z,150970.19
2024-03-14T20:19:27.694Z,150936.66
2024-03-14T20:24:29.691Z,150873.47
2024-03-14T20:29:33.819Z,150860.59
2024-03-14T20:34:35.931Z,150861.88
2024-03-14T20:39:42.972Z,150864.44
2024-03-14T20:44:45.431Z,150852.84
2024-03-14T20:49:47.870Z,150832.25
2024-03-14T20:55:06.255Z,150796.09
2024-03-14T21:00:14.134Z,150780.66
2024-03-14T21:05:15.968Z,150772.88
2024-03-14T21:10:25.906Z,150784.50
2024-03-14T21:15:27.792Z,150809.00
2024-03-14T21:20:29.975Z,150796.09
2024-03-14T21:25:32.432Z,150800.00
2024-03-14T21:30:36.415Z,150821.94
2024-03-14T21:35:41.176Z,150807.72
2024-03-14T21:40:44.013Z,150789.69
2024-03-14T21:45:48.723Z,150766.44
2024-03-14T21:50:51.075Z,150753.56
2024-03-14T21:55:52.835Z,150752.22
2024-03-14T22:00:55.130Z,150727.75
2024-03-14T22:05:56.798Z,150745.81
2024-03-14T22:10:58.483Z,150730.31
2024-03-14T22:16:00.268Z,150726.47
2024-03-14T22:21:02.096Z,150718.72
2024-03-14T22:26:03.957Z,150718.72
2024-03-14T22:31:11.996Z,150757.41
2024-03-14T22:36:15.519Z,150734.22
2024-03-14T22:41:17.541Z,150686.53
2024-03-14T22:46:19.271Z,150658.19
2024-03-14T22:51:21.002Z,150654.31
2024-03-14T22:56:22.656Z,150632.44
2024-03-14T23:01:24.523Z,150610.53
2024-03-14T23:06:26.297Z,150624.69
2024-03-14T23:11:28.009Z,150540.97
2024-03-14T23:16:32.539Z,150533.22
2024-03-14T23:21:35.997Z,150521.63
2024-03-14T23:26:38.645Z,150485.59
2024-03-14T23:31:41.514Z,150488.16
2024-03-14T23:36:43.449Z,150445.66
2024-03-14T23:41:45.146Z,150458.50
2024-03-14T23:46:49.634Z,150503.59
2024-03-14T23:51:52.961Z,150461.06
2024-03-14T23:56:54.621Z,150477.84
